sensor_id;sensor_type;location;lat;lon;timestamp;P1;durP1;ratioP1;P2;durP2;ratioP2
65009;SDS011;51556;50.002;22.014;2023-07-02T00:01:10;13.10;;;8.60;;
65009;SDS011;51556;50.002;22.014;2023-07-02T00:03:37;13.50;;;8.60;;
65009;SDS011;51556;50.002;22.014;2023-07-02T00:06:03;14.10;;;9.00;;
65009;SDS011;51556;50.002;22.014;2023-07-02T00:08:29;13.80;;;8.00;;
65009;SDS011;51556;50.002;22.014;2023-07-02T00:10:54;11.00;;;8.70;;
65009;SDS011;51556;50.002;22.014;2023-07-02T00:13:20;11.20;;;8.50;;
65009;SDS011;51556;50.002;22.014;2023-07-02T00:15:46;10.30;;;8.80;;
65009;SDS011;51556;50.002;22.014;2023-07-02T00:18:11;11.70;;;8.60;;
65009;SDS011;51556;50.002;22.014;2023-07-02T00:20:42;9.80;;;8.50;;
65009;SDS011;51556;50.002;22.014;2023-07-02T00:23:08;12.00;;;8.10;;
65009;SDS011;51556;50.002;22.014;2023-07-02T00:25:35;11.80;;;9.10;;
65009;SDS011;51556;50.002;22.014;2023-07-02T00:28:01;11.10;;;8.80;;
65009;SDS011;51556;50.002;22.014;2023-07-02T00:30:27;12.30;;;8.70;;
65009;SDS011;51556;50.002;22.014;2023-07-02T00:32:53;10.10;;;8.40;;
65009;SDS011;51556;50.002;22.014;2023-07-02T00:35:18;11.40;;;8.70;;
65009;SDS011;51556;50.002;22.014;2023-07-02T00:37:43;11.30;;;7.80;;
65009;SDS011;51556;50.002;22.014;2023-07-02T00:40:09;11.30;;;8.10;;
65009;SDS011;51556;50.002;22.014;2023-07-02T00:42:35;9.50;;;7.90;;
65009;SDS011;51556;50.002;22.014;2023-07-02T00:45:00;11.10;;;8.30;;
65009;SDS011;51556;50.002;22.014;2023-07-02T00:47:28;11.90;;;7.50;;
65009;SDS011;51556;50.002;22.014;2023-07-02T00:49:55;9.00;;;8.00;;
65009;SDS011;51556;50.002;22.014;2023-07-02T00:52:20;12.30;;;8.10;;
65009;SDS011;51556;50.002;22.014;2023-07-02T00:54:46;9.70;;;7.40;;
65009;SDS011;51556;50.002;22.014;2023-07-02T00:57:12;12.50;;;7.50;;
65009;SDS011;51556;50.002;22.014;2023-07-02T00:59:37;9.30;;;7.80;;
65009;SDS011;51556;50.002;22.014;2023-07-02T01:02:06;11.80;;;7.80;;
65009;SDS011;51556;50.002;22.014;2023-07-02T01:04:31;11.40;;;8.10;;
65009;SDS011;51556;50.002;22.014;2023-07-02T01:06:57;10.50;;;8.00;;
65009;SDS011;51556;50.002;22.014;2023-07-02T01:09:25;9.50;;;8.00;;
65009;SDS011;51556;50.002;22.014;2023-07-02T01:11:56;10.10;;;7.70;;
65009;SDS011;51556;50.002;22.014;2023-07-02T01:17:03;10.20;;;8.30;;
65009;SDS011;51556;50.002;22.014;2023-07-02T01:19:46;11.90;;;7.40;;
65009;SDS011;51556;50.002;22.014;2023-07-02T01:22:21;12.00;;;7.40;;
65009;SDS011;51556;50.002;22.014;2023-07-02T01:24:49;9.50;;;7.80;;
65009;SDS011;51556;50.002;22.014;2023-07-02T01:27:16;12.90;;;7.60;;
65009;SDS011;51556;50.002;22.014;2023-07-02T01:29:42;9.80;;;7.80;;
65009;SDS011;51556;50.002;22.014;2023-07-02T01:32:10;14.80;;;8.00;;
65009;SDS011;51556;50.002;22.014;2023-07-02T01:34:36;11.60;;;7.70;;
65009;SDS011;51556;50.002;22.014;2023-07-02T01:37:02;12.70;;;7.50;;
65009;SDS011;51556;50.002;22.014;2023-07-02T01:39:28;8.70;;;7.70;;
65009;SDS011;51556;50.002;22.014;2023-07-02T01:41:56;9.00;;;7.30;;
65009;SDS011;51556;50.002;22.014;2023-07-02T01:44:33;8.30;;;6.60;;
65009;SDS011;51556;50.002;22.014;2023-07-02T01:46:58;10.30;;;7.10;;
65009;SDS011;51556;50.002;22.014;2023-07-02T01:49:24;9.60;;;6.90;;
65009;SDS011;51556;50.002;22.014;2023-07-02T01:51:53;9.80;;;7.80;;
65009;SDS011;51556;50.002;22.014;2023-07-02T01:54:20;7.70;;;6.60;;
65009;SDS011;51556;50.002;22.014;2023-07-02T01:56:47;11.50;;;7.10;;
65009;SDS011;51556;50.002;22.014;2023-07-02T01:59:12;9.50;;;7.50;;
65009;SDS011;51556;50.002;22.014;2023-07-02T02:01:38;7.50;;;6.80;;
65009;SDS011;51556;50.002;22.014;2023-07-02T02:04:07;9.00;;;7.60;;
65009;SDS011;51556;50.002;22.014;2023-07-02T02:06:34;10.50;;;7.00;;
65009;SDS011;51556;50.002;22.014;2023-07-02T02:09:00;9.20;;;7.30;;
65009;SDS011;51556;50.002;22.014;2023-07-02T02:11:27;11.40;;;7.60;;
65009;SDS011;51556;50.002;22.014;2023-07-02T02:13:52;9.50;;;7.20;;
65009;SDS011;51556;50.002;22.014;2023-07-02T02:16:17;8.90;;;7.40;;
65009;SDS011;51556;50.002;22.014;2023-07-02T02:18:43;12.00;;;7.30;;
65009;SDS011;51556;50.002;22.014;2023-07-02T02:21:09;9.20;;;7.30;;
65009;SDS011;51556;50.002;22.014;2023-07-02T02:23:34;9.80;;;7.10;;
65009;SDS011;51556;50.002;22.014;2023-07-02T02:26:00;10.30;;;7.30;;
65009;SDS011;51556;50.002;22.014;2023-07-02T02:28:25;8.50;;;7.60;;
65009;SDS011;51556;50.002;22.014;2023-07-02T02:30:51;8.60;;;7.70;;
65009;SDS011;51556;50.002;22.014;2023-07-02T02:33:16;10.60;;;7.30;;
65009;SDS011;51556;50.002;22.014;2023-07-02T02:35:41;13.20;;;7.70;;
65009;SDS011;51556;50.002;22.014;2023-07-02T02:38:07;9.50;;;7.60;;
65009;SDS011;51556;50.002;22.014;2023-07-02T02:40:32;14.20;;;7.50;;
65009;SDS011;51556;50.002;22.014;2023-07-02T02:42:58;11.70;;;7.50;;
65009;SDS011;51556;50.002;22.014;2023-07-02T02:45:23;7.40;;;6.70;;
65009;SDS011;51556;50.002;22.014;2023-07-02T02:47:49;8.70;;;6.50;;
65009;SDS011;51556;50.002;22.014;2023-07-02T02:50:14;10.40;;;7.00;;
65009;SDS011;51556;50.002;22.014;2023-07-02T02:52:40;12.20;;;7.50;;
65009;SDS011;51556;50.002;22.014;2023-07-02T02:55:06;8.70;;;6.50;;
65009;SDS011;51556;50.002;22.014;2023-07-02T02:57:33;10.10;;;7.40;;
65009;SDS011;51556;50.002;22.014;2023-07-02T02:59:58;9.00;;;7.90;;
65009;SDS011;51556;50.002;22.014;2023-07-02T03:02:24;7.90;;;7.10;;
65009;SDS011;51556;50.002;22.014;2023-07-02T03:04:50;8.10;;;7.10;;
65009;SDS011;51556;50.002;22.014;2023-07-02T03:07:16;10.10;;;7.90;;
65009;SDS011;51556;50.002;22.014;2023-07-02T03:09:41;11.90;;;7.60;;
65009;SDS011;51556;50.002;22.014;2023-07-02T03:12:07;8.90;;;6.80;;
65009;SDS011;51556;50.002;22.014;2023-07-02T03:14:33;8.50;;;7.40;;
65009;SDS011;51556;50.002;22.014;2023-07-02T03:16:58;10.70;;;7.80;;
65009;SDS011;51556;50.002;22.014;2023-07-02T03:19:24;11.30;;;8.50;;
65009;SDS011;51556;50.002;22.014;2023-07-02T03:21:50;8.60;;;7.70;;
65009;SDS011;51556;50.002;22.014;2023-07-02T03:24:15;9.40;;;8.00;;
65009;SDS011;51556;50.002;22.014;2023-07-02T03:26:42;12.90;;;8.00;;
65009;SDS011;51556;50.002;22.014;2023-07-02T03:29:08;9.60;;;8.20;;
65009;SDS011;51556;50.002;22.014;2023-07-02T03:31:34;9.70;;;7.90;;
65009;SDS011;51556;50.002;22.014;2023-07-02T03:34:05;11.10;;;8.40;;
65009;SDS011;51556;50.002;22.014;2023-07-02T03:36:32;10.20;;;7.70;;
65009;SDS011;51556;50.002;22.014;2023-07-02T03:39:01;9.70;;;7.60;;
65009;SDS011;51556;50.002;22.014;2023-07-02T03:41:27;10.80;;;7.80;;
65009;SDS011;51556;50.002;22.014;2023-07-02T03:43:53;10.20;;;8.30;;
65009;SDS011;51556;50.002;22.014;2023-07-02T03:46:18;9.60;;;7.50;;
65009;SDS011;51556;50.002;22.014;2023-07-02T03:48:44;10.30;;;8.50;;
65009;SDS011;51556;50.002;22.014;2023-07-02T03:51:10;11.40;;;8.30;;
65009;SDS011;51556;50.002;22.014;2023-07-02T03:53:37;9.80;;;8.20;;
65009;SDS011;51556;50.002;22.014;2023-07-02T03:56:03;10.10;;;7.90;;
65009;SDS011;51556;50.002;22.014;2023-07-02T03:58:29;10.70;;;8.30;;
65009;SDS011;51556;50.002;22.014;2023-07-02T04:00:54;8.60;;;7.50;;
65009;SDS011;51556;50.002;22.014;2023-07-02T04:03:19;9.80;;;7.50;;
65009;SDS011;51556;50.002;22.014;2023-07-02T04:05:45;8.50;;;7.60;;
65009;SDS011;51556;50.002;22.014;2023-07-02T04:08:10;11.10;;;8.80;;
65009;SDS011;51556;50.002;22.014;2023-07-02T04:10:36;10.60;;;8.50;;
65009;SDS011;51556;50.002;22.014;2023-07-02T04:13:01;13.50;;;8.50;;
65009;SDS011;51556;50.002;22.014;2023-07-02T04:15:27;11.50;;;8.50;;
65009;SDS011;51556;50.002;22.014;2023-07-02T04:17:52;9.30;;;7.70;;
65009;SDS011;51556;50.002;22.014;2023-07-02T04:20:18;10.20;;;8.40;;
65009;SDS011;51556;50.002;22.014;2023-07-02T04:22:45;9.20;;;7.50;;
65009;SDS011;51556;50.002;22.014;2023-07-02T04:25:14;10.10;;;7.80;;
65009;SDS011;51556;50.002;22.014;2023-07-02T04:27:40;11.30;;;8.00;;
65009;SDS011;51556;50.002;22.014;2023-07-02T04:30:07;10.30;;;7.50;;
65009;SDS011;51556;50.002;22.014;2023-07-02T04:32:35;11.60;;;8.30;;
65009;SDS011;51556;50.002;22.014;2023-07-02T04:35:01;12.40;;;8.40;;
65009;SDS011;51556;50.002;22.014;2023-07-02T04:37:27;9.10;;;7.40;;
65009;SDS011;51556;50.002;22.014;2023-07-02T04:39:55;10.50;;;8.80;;
65009;SDS011;51556;50.002;22.014;2023-07-02T04:42:21;11.60;;;8.30;;
65009;SDS011;51556;50.002;22.014;2023-07-02T04:44:46;11.00;;;7.70;;
65009;SDS011;51556;50.002;22.014;2023-07-02T04:47:11;9.60;;;7.70;;
65009;SDS011;51556;50.002;22.014;2023-07-02T04:49:37;9.00;;;7.30;;
65009;SDS011;51556;50.002;22.014;2023-07-02T04:52:04;11.20;;;7.90;;
65009;SDS011;51556;50.002;22.014;2023-07-02T04:54:29;8.00;;;7.10;;
65009;SDS011;51556;50.002;22.014;2023-07-02T04:56:54;10.10;;;8.00;;
65009;SDS011;51556;50.002;22.014;2023-07-02T04:59:20;9.80;;;8.20;;
65009;SDS011;51556;50.002;22.014;2023-07-02T05:01:46;11.10;;;8.60;;
65009;SDS011;51556;50.002;22.014;2023-07-02T05:04:12;9.90;;;8.30;;
65009;SDS011;51556;50.002;22.014;2023-07-02T05:06:38;11.20;;;8.30;;
65009;SDS011;51556;50.002;22.014;2023-07-02T05:09:03;10.10;;;8.50;;
65009;SDS011;51556;50.002;22.014;2023-07-02T05:11:29;10.30;;;8.10;;
65009;SDS011;51556;50.002;22.014;2023-07-02T05:13:54;9.70;;;8.20;;
65009;SDS011;51556;50.002;22.014;2023-07-02T05:16:20;10.40;;;8.00;;
65009;SDS011;51556;50.002;22.014;2023-07-02T05:18:45;9.70;;;8.50;;
65009;SDS011;51556;50.002;22.014;2023-07-02T05:21:11;11.50;;;8.60;;
65009;SDS011;51556;50.002;22.014;2023-07-02T05:23:37;10.00;;;7.50;;
65009;SDS011;51556;50.002;22.014;2023-07-02T05:26:02;11.50;;;8.10;;
65009;SDS011;51556;50.002;22.014;2023-07-02T05:28:28;10.70;;;8.20;;
65009;SDS011;51556;50.002;22.014;2023-07-02T05:30:54;9.50;;;8.00;;
65009;SDS011;51556;50.002;22.014;2023-07-02T05:33:19;8.70;;;7.10;;
65009;SDS011;51556;50.002;22.014;2023-07-02T05:35:47;10.30;;;7.50;;
65009;SDS011;51556;50.002;22.014;2023-07-02T05:38:13;9.20;;;7.70;;
65009;SDS011;51556;50.002;22.014;2023-07-02T05:40:39;8.80;;;7.80;;
65009;SDS011;51556;50.002;22.014;2023-07-02T05:43:04;8.80;;;7.60;;
65009;SDS011;51556;50.002;22.014;2023-07-02T05:45:29;10.80;;;7.60;;
65009;SDS011;51556;50.002;22.014;2023-07-02T05:47:55;10.90;;;8.10;;
65009;SDS011;51556;50.002;22.014;2023-07-02T05:50:20;9.40;;;7.80;;
65009;SDS011;51556;50.002;22.014;2023-07-02T05:52:46;10.40;;;8.70;;
65009;SDS011;51556;50.002;22.014;2023-07-02T05:55:11;10.00;;;8.00;;
65009;SDS011;51556;50.002;22.014;2023-07-02T05:57:37;7.80;;;7.00;;
65009;SDS011;51556;50.002;22.014;2023-07-02T06:00:04;9.70;;;8.10;;
65009;SDS011;51556;50.002;22.014;2023-07-02T06:02:31;11.50;;;7.90;;
65009;SDS011;51556;50.002;22.014;2023-07-02T06:04:57;8.90;;;7.80;;
65009;SDS011;51556;50.002;22.014;2023-07-02T06:07:23;9.20;;;8.30;;
65009;SDS011;51556;50.002;22.014;2023-07-02T06:09:49;11.10;;;8.30;;
65009;SDS011;51556;50.002;22.014;2023-07-02T06:12:15;9.40;;;7.60;;
65009;SDS011;51556;50.002;22.014;2023-07-02T06:14:40;8.50;;;7.30;;
65009;SDS011;51556;50.002;22.014;2023-07-02T06:17:06;8.80;;;7.90;;
65009;SDS011;51556;50.002;22.014;2023-07-02T06:19:33;8.40;;;7.50;;
65009;SDS011;51556;50.002;22.014;2023-07-02T06:21:59;10.10;;;8.40;;
65009;SDS011;51556;50.002;22.014;2023-07-02T06:24:24;9.60;;;7.90;;
65009;SDS011;51556;50.002;22.014;2023-07-02T06:26:50;9.40;;;8.10;;
65009;SDS011;51556;50.002;22.014;2023-07-02T06:29:15;9.40;;;8.40;;
65009;SDS011;51556;50.002;22.014;2023-07-02T06:31:41;9.80;;;7.70;;
65009;SDS011;51556;50.002;22.014;2023-07-02T06:34:06;9.50;;;8.00;;
65009;SDS011;51556;50.002;22.014;2023-07-02T06:36:33;11.50;;;8.20;;
65009;SDS011;51556;50.002;22.014;2023-07-02T06:39:01;8.40;;;7.50;;
65009;SDS011;51556;50.002;22.014;2023-07-02T06:41:27;10.30;;;8.00;;
65009;SDS011;51556;50.002;22.014;2023-07-02T06:43:52;9.20;;;8.00;;
65009;SDS011;51556;50.002;22.014;2023-07-02T06:46:19;10.30;;;8.40;;
65009;SDS011;51556;50.002;22.014;2023-07-02T06:48:44;8.50;;;7.50;;
65009;SDS011;51556;50.002;22.014;2023-07-02T06:51:10;10.60;;;8.40;;
65009;SDS011;51556;50.002;22.014;2023-07-02T06:53:39;9.80;;;7.80;;
65009;SDS011;51556;50.002;22.014;2023-07-02T06:56:07;9.90;;;7.40;;
65009;SDS011;51556;50.002;22.014;2023-07-02T06:58:33;9.30;;;7.40;;
65009;SDS011;51556;50.002;22.014;2023-07-02T07:00:59;9.70;;;8.10;;
65009;SDS011;51556;50.002;22.014;2023-07-02T07:03:24;9.70;;;7.20;;
65009;SDS011;51556;50.002;22.014;2023-07-02T07:05:50;8.20;;;7.00;;
65009;SDS011;51556;50.002;22.014;2023-07-02T07:08:15;8.50;;;7.60;;
65009;SDS011;51556;50.002;22.014;2023-07-02T07:10:41;9.00;;;7.10;;
65009;SDS011;51556;50.002;22.014;2023-07-02T07:13:06;8.30;;;7.20;;
65009;SDS011;51556;50.002;22.014;2023-07-02T07:15:32;10.20;;;7.40;;
65009;SDS011;51556;50.002;22.014;2023-07-02T07:18:00;8.70;;;6.60;;
65009;SDS011;51556;50.002;22.014;2023-07-02T07:20:26;7.50;;;6.70;;
65009;SDS011;51556;50.002;22.014;2023-07-02T07:22:51;7.10;;;6.20;;
65009;SDS011;51556;50.002;22.014;2023-07-02T07:25:17;8.60;;;6.40;;
65009;SDS011;51556;50.002;22.014;2023-07-02T07:27:42;7.70;;;6.60;;
65009;SDS011;51556;50.002;22.014;2023-07-02T07:30:08;7.70;;;6.70;;
65009;SDS011;51556;50.002;22.014;2023-07-02T07:32:33;9.20;;;6.90;;
65009;SDS011;51556;50.002;22.014;2023-07-02T07:34:59;8.10;;;6.50;;
65009;SDS011;51556;50.002;22.014;2023-07-02T07:37:24;10.20;;;7.20;;
65009;SDS011;51556;50.002;22.014;2023-07-02T07:39:53;10.20;;;6.90;;
65009;SDS011;51556;50.002;22.014;2023-07-02T07:42:18;7.40;;;6.40;;
65009;SDS011;51556;50.002;22.014;2023-07-02T07:44:47;7.90;;;6.60;;
65009;SDS011;51556;50.002;22.014;2023-07-02T07:47:12;8.40;;;6.00;;
65009;SDS011;51556;50.002;22.014;2023-07-02T07:49:38;7.20;;;5.70;;
65009;SDS011;51556;50.002;22.014;2023-07-02T07:52:03;6.90;;;6.10;;
65009;SDS011;51556;50.002;22.014;2023-07-02T07:54:32;7.60;;;5.40;;
65009;SDS011;51556;50.002;22.014;2023-07-02T07:56:59;6.80;;;5.10;;
65009;SDS011;51556;50.002;22.014;2023-07-02T07:59:25;6.10;;;5.10;;
65009;SDS011;51556;50.002;22.014;2023-07-02T08:01:50;6.30;;;5.30;;
65009;SDS011;51556;50.002;22.014;2023-07-02T08:04:16;7.10;;;5.70;;
65009;SDS011;51556;50.002;22.014;2023-07-02T08:06:41;9.00;;;5.70;;
65009;SDS011;51556;50.002;22.014;2023-07-02T08:09:06;6.50;;;5.10;;
65009;SDS011;51556;50.002;22.014;2023-07-02T08:11:32;4.60;;;4.00;;
65009;SDS011;51556;50.002;22.014;2023-07-02T08:13:59;6.40;;;4.50;;
65009;SDS011;51556;50.002;22.014;2023-07-02T08:16:24;8.40;;;4.30;;
65009;SDS011;51556;50.002;22.014;2023-07-02T08:18:50;7.30;;;4.50;;
65009;SDS011;51556;50.002;22.014;2023-07-02T08:21:15;5.60;;;4.70;;
65009;SDS011;51556;50.002;22.014;2023-07-02T08:23:42;6.60;;;4.90;;
65009;SDS011;51556;50.002;22.014;2023-07-02T08:26:08;6.60;;;4.80;;
65009;SDS011;51556;50.002;22.014;2023-07-02T08:28:35;6.90;;;4.90;;
65009;SDS011;51556;50.002;22.014;2023-07-02T08:31:03;6.20;;;4.80;;
65009;SDS011;51556;50.002;22.014;2023-07-02T08:33:29;6.60;;;5.10;;
65009;SDS011;51556;50.002;22.014;2023-07-02T08:35:54;7.00;;;5.10;;
65009;SDS011;51556;50.002;22.014;2023-07-02T08:38:20;7.90;;;4.80;;
65009;SDS011;51556;50.002;22.014;2023-07-02T08:40:45;6.60;;;4.40;;
65009;SDS011;51556;50.002;22.014;2023-07-02T08:43:11;7.00;;;4.10;;
65009;SDS011;51556;50.002;22.014;2023-07-02T08:45:36;6.00;;;4.00;;
65009;SDS011;51556;50.002;22.014;2023-07-02T08:48:02;6.40;;;4.00;;
65009;SDS011;51556;50.002;22.014;2023-07-02T08:50:28;5.00;;;4.10;;
65009;SDS011;51556;50.002;22.014;2023-07-02T08:52:54;4.40;;;3.60;;
65009;SDS011;51556;50.002;22.014;2023-07-02T08:55:19;5.50;;;4.00;;
65009;SDS011;51556;50.002;22.014;2023-07-02T08:57:54;5.20;;;3.80;;
65009;SDS011;51556;50.002;22.014;2023-07-02T09:00:19;15.10;;;4.20;;
65009;SDS011;51556;50.002;22.014;2023-07-02T09:02:46;4.80;;;3.80;;
65009;SDS011;51556;50.002;22.014;2023-07-02T09:05:12;5.90;;;3.70;;
65009;SDS011;51556;50.002;22.014;2023-07-02T09:07:44;6.40;;;4.10;;
65009;SDS011;51556;50.002;22.014;2023-07-02T09:10:25;8.10;;;4.30;;
65009;SDS011;51556;50.002;22.014;2023-07-02T09:13:02;4.90;;;3.60;;
65009;SDS011;51556;50.002;22.014;2023-07-02T09:15:35;7.30;;;3.80;;
65009;SDS011;51556;50.002;22.014;2023-07-02T09:18:17;5.40;;;4.20;;
65009;SDS011;51556;50.002;22.014;2023-07-02T09:20:43;5.00;;;4.00;;
65009;SDS011;51556;50.002;22.014;2023-07-02T09:23:09;6.30;;;4.40;;
65009;SDS011;51556;50.002;22.014;2023-07-02T09:25:39;6.00;;;4.30;;
65009;SDS011;51556;50.002;22.014;2023-07-02T09:28:14;5.80;;;4.50;;
65009;SDS011;51556;50.002;22.014;2023-07-02T09:30:50;5.90;;;4.50;;
65009;SDS011;51556;50.002;22.014;2023-07-02T09:33:20;5.30;;;4.30;;
65009;SDS011;51556;50.002;22.014;2023-07-02T09:35:48;8.10;;;5.00;;
65009;SDS011;51556;50.002;22.014;2023-07-02T09:38:15;6.50;;;4.60;;
65009;SDS011;51556;50.002;22.014;2023-07-02T09:40:59;6.30;;;4.40;;
65009;SDS011;51556;50.002;22.014;2023-07-02T09:43:45;6.70;;;4.80;;
65009;SDS011;51556;50.002;22.014;2023-07-02T09:46:10;6.70;;;4.70;;
65009;SDS011;51556;50.002;22.014;2023-07-02T09:48:36;8.30;;;4.90;;
65009;SDS011;51556;50.002;22.014;2023-07-02T09:51:01;5.90;;;4.70;;
65009;SDS011;51556;50.002;22.014;2023-07-02T09:53:29;6.40;;;4.80;;
65009;SDS011;51556;50.002;22.014;2023-07-02T09:55:54;6.70;;;4.50;;
65009;SDS011;51556;50.002;22.014;2023-07-02T09:58:20;6.10;;;4.40;;
65009;SDS011;51556;50.002;22.014;2023-07-02T10:00:46;7.60;;;4.20;;
65009;SDS011;51556;50.002;22.014;2023-07-02T10:03:12;6.00;;;4.70;;
65009;SDS011;51556;50.002;22.014;2023-07-02T10:06:04;6.60;;;4.80;;
65009;SDS011;51556;50.002;22.014;2023-07-02T10:08:34;7.60;;;5.10;;
65009;SDS011;51556;50.002;22.014;2023-07-02T10:11:09;6.80;;;4.70;;
65009;SDS011;51556;50.002;22.014;2023-07-02T10:13:36;5.50;;;4.60;;
65009;SDS011;51556;50.002;22.014;2023-07-02T10:16:05;8.20;;;5.20;;
65009;SDS011;51556;50.002;22.014;2023-07-02T10:19:12;5.90;;;4.90;;
65009;SDS011;51556;50.002;22.014;2023-07-02T10:21:38;7.60;;;5.00;;
65009;SDS011;51556;50.002;22.014;2023-07-02T10:24:13;6.50;;;4.90;;
65009;SDS011;51556;50.002;22.014;2023-07-02T10:26:58;6.80;;;4.70;;
65009;SDS011;51556;50.002;22.014;2023-07-02T10:29:25;6.30;;;5.10;;
65009;SDS011;51556;50.002;22.014;2023-07-02T10:31:56;8.20;;;5.00;;
65009;SDS011;51556;50.002;22.014;2023-07-02T10:34:32;7.50;;;5.20;;
65009;SDS011;51556;50.002;22.014;2023-07-02T10:37:02;7.00;;;4.40;;
65009;SDS011;51556;50.002;22.014;2023-07-02T10:39:31;7.10;;;4.20;;
65009;SDS011;51556;50.002;22.014;2023-07-02T10:42:04;6.10;;;4.10;;
65009;SDS011;51556;50.002;22.014;2023-07-02T10:44:33;7.40;;;4.10;;
65009;SDS011;51556;50.002;22.014;2023-07-02T10:46:59;6.00;;;3.50;;
65009;SDS011;51556;50.002;22.014;2023-07-02T10:49:31;5.30;;;3.80;;
65009;SDS011;51556;50.002;22.014;2023-07-02T10:51:58;4.10;;;3.30;;
65009;SDS011;51556;50.002;22.014;2023-07-02T10:54:47;5.90;;;4.10;;
65009;SDS011;51556;50.002;22.014;2023-07-02T10:57:14;6.00;;;4.30;;
65009;SDS011;51556;50.002;22.014;2023-07-02T10:59:45;9.30;;;4.00;;
65009;SDS011;51556;50.002;22.014;2023-07-02T11:02:11;5.10;;;3.90;;
65009;SDS011;51556;50.002;22.014;2023-07-02T11:04:37;5.50;;;3.50;;
65009;SDS011;51556;50.002;22.014;2023-07-02T11:07:03;6.30;;;3.80;;
65009;SDS011;51556;50.002;22.014;2023-07-02T11:09:32;6.60;;;4.40;;
65009;SDS011;51556;50.002;22.014;2023-07-02T11:11:58;5.00;;;4.10;;
65009;SDS011;51556;50.002;22.014;2023-07-02T11:14:35;6.50;;;4.20;;
65009;SDS011;51556;50.002;22.014;2023-07-02T11:17:05;6.80;;;3.70;;
65009;SDS011;51556;50.002;22.014;2023-07-02T11:19:41;7.20;;;3.60;;
65009;SDS011;51556;50.002;22.014;2023-07-02T11:22:41;5.70;;;3.50;;
65009;SDS011;51556;50.002;22.014;2023-07-02T11:25:10;6.70;;;3.80;;
65009;SDS011;51556;50.002;22.014;2023-07-02T11:30:57;6.30;;;3.90;;
65009;SDS011;51556;50.002;22.014;2023-07-02T11:33:39;5.20;;;3.50;;
65009;SDS011;51556;50.002;22.014;2023-07-02T11:36:36;7.60;;;3.60;;
65009;SDS011;51556;50.002;22.014;2023-07-02T11:39:09;4.10;;;3.10;;
65009;SDS011;51556;50.002;22.014;2023-07-02T11:42:22;5.60;;;3.40;;
65009;SDS011;51556;50.002;22.014;2023-07-02T11:51:25;4.20;;;3.70;;
65009;SDS011;51556;50.002;22.014;2023-07-02T11:57:36;5.50;;;3.60;;
65009;SDS011;51556;50.002;22.014;2023-07-02T12:03:31;6.00;;;3.70;;
65009;SDS011;51556;50.002;22.014;2023-07-02T12:06:37;5.60;;;3.90;;
65009;SDS011;51556;50.002;22.014;2023-07-02T12:09:13;4.70;;;3.80;;
65009;SDS011;51556;50.002;22.014;2023-07-02T12:11:38;6.00;;;4.00;;
65009;SDS011;51556;50.002;22.014;2023-07-02T12:14:24;5.20;;;3.60;;
65009;SDS011;51556;50.002;22.014;2023-07-02T12:16:50;8.40;;;4.00;;
65009;SDS011;51556;50.002;22.014;2023-07-02T12:19:15;5.50;;;3.10;;
65009;SDS011;51556;50.002;22.014;2023-07-02T12:21:44;8.80;;;3.30;;
65009;SDS011;51556;50.002;22.014;2023-07-02T12:24:27;4.50;;;3.20;;
65009;SDS011;51556;50.002;22.014;2023-07-02T12:26:52;4.50;;;3.30;;
65009;SDS011;51556;50.002;22.014;2023-07-02T12:29:18;4.90;;;3.50;;
65009;SDS011;51556;50.002;22.014;2023-07-02T12:32:14;4.10;;;3.40;;
65009;SDS011;51556;50.002;22.014;2023-07-02T12:34:40;4.70;;;3.10;;
65009;SDS011;51556;50.002;22.014;2023-07-02T12:37:05;5.30;;;3.40;;
65009;SDS011;51556;50.002;22.014;2023-07-02T12:39:42;5.40;;;3.60;;
65009;SDS011;51556;50.002;22.014;2023-07-02T12:42:07;4.20;;;3.30;;
65009;SDS011;51556;50.002;22.014;2023-07-02T12:44:36;7.00;;;4.00;;
65009;SDS011;51556;50.002;22.014;2023-07-02T12:47:02;3.60;;;2.90;;
65009;SDS011;51556;50.002;22.014;2023-07-02T12:55:04;4.40;;;3.20;;
65009;SDS011;51556;50.002;22.014;2023-07-02T12:57:50;7.30;;;3.90;;
65009;SDS011;51556;50.002;22.014;2023-07-02T13:00:16;6.30;;;3.40;;
65009;SDS011;51556;50.002;22.014;2023-07-02T13:02:42;7.10;;;3.50;;
65009;SDS011;51556;50.002;22.014;2023-07-02T13:05:48;4.70;;;3.80;;
65009;SDS011;51556;50.002;22.014;2023-07-02T13:08:13;7.60;;;3.70;;
65009;SDS011;51556;50.002;22.014;2023-07-02T13:11:02;4.30;;;3.30;;
65009;SDS011;51556;50.002;22.014;2023-07-02T13:16:53;5.00;;;3.60;;
65009;SDS011;51556;50.002;22.014;2023-07-02T13:19:19;4.30;;;3.40;;
65009;SDS011;51556;50.002;22.014;2023-07-02T13:21:44;6.00;;;3.40;;
65009;SDS011;51556;50.002;22.014;2023-07-02T13:24:13;5.60;;;3.20;;
65009;SDS011;51556;50.002;22.014;2023-07-02T13:26:38;3.40;;;2.90;;
65009;SDS011;51556;50.002;22.014;2023-07-02T13:29:44;4.50;;;2.90;;
65009;SDS011;51556;50.002;22.014;2023-07-02T13:32:10;3.30;;;2.60;;
65009;SDS011;51556;50.002;22.014;2023-07-02T13:34:36;3.90;;;2.70;;
65009;SDS011;51556;50.002;22.014;2023-07-02T13:37:05;3.90;;;3.00;;
65009;SDS011;51556;50.002;22.014;2023-07-02T13:39:30;4.00;;;2.60;;
65009;SDS011;51556;50.002;22.014;2023-07-02T13:41:56;5.50;;;2.90;;
65009;SDS011;51556;50.002;22.014;2023-07-02T13:44:22;3.70;;;2.70;;
65009;SDS011;51556;50.002;22.014;2023-07-02T13:47:08;4.10;;;2.80;;
65009;SDS011;51556;50.002;22.014;2023-07-02T13:49:56;6.30;;;2.80;;
65009;SDS011;51556;50.002;22.014;2023-07-02T13:52:42;7.30;;;2.80;;
65009;SDS011;51556;50.002;22.014;2023-07-02T13:55:38;6.40;;;2.60;;
65009;SDS011;51556;50.002;22.014;2023-07-02T13:58:06;4.80;;;2.60;;
65009;SDS011;51556;50.002;22.014;2023-07-02T14:00:31;4.50;;;2.60;;
65009;SDS011;51556;50.002;22.014;2023-07-02T14:03:00;6.60;;;2.90;;
65009;SDS011;51556;50.002;22.014;2023-07-02T14:05:46;5.80;;;2.60;;
65009;SDS011;51556;50.002;22.014;2023-07-02T14:08:14;5.70;;;2.60;;
65009;SDS011;51556;50.002;22.014;2023-07-02T14:10:40;5.10;;;2.90;;
65009;SDS011;51556;50.002;22.014;2023-07-02T14:13:05;5.60;;;2.90;;
65009;SDS011;51556;50.002;22.014;2023-07-02T14:15:31;4.50;;;2.90;;
65009;SDS011;51556;50.002;22.014;2023-07-02T14:17:59;4.20;;;2.70;;
65009;SDS011;51556;50.002;22.014;2023-07-02T14:20:24;5.70;;;2.50;;
65009;SDS011;51556;50.002;22.014;2023-07-02T14:23:10;4.10;;;2.30;;
65009;SDS011;51556;50.002;22.014;2023-07-02T14:25:35;3.90;;;2.30;;
65009;SDS011;51556;50.002;22.014;2023-07-02T14:28:01;3.20;;;2.70;;
65009;SDS011;51556;50.002;22.014;2023-07-02T14:30:27;5.20;;;2.80;;
65009;SDS011;51556;50.002;22.014;2023-07-02T14:32:58;4.50;;;2.70;;
65009;SDS011;51556;50.002;22.014;2023-07-02T14:35:24;5.50;;;2.50;;
65009;SDS011;51556;50.002;22.014;2023-07-02T14:37:52;3.20;;;2.30;;
65009;SDS011;51556;50.002;22.014;2023-07-02T14:40:18;6.10;;;2.60;;
65009;SDS011;51556;50.002;22.014;2023-07-02T14:42:44;3.80;;;2.00;;
65009;SDS011;51556;50.002;22.014;2023-07-02T14:45:10;5.00;;;2.60;;
65009;SDS011;51556;50.002;22.014;2023-07-02T14:47:35;3.20;;;2.70;;
65009;SDS011;51556;50.002;22.014;2023-07-02T14:50:04;6.30;;;2.30;;
65009;SDS011;51556;50.002;22.014;2023-07-02T14:52:30;3.00;;;2.50;;
65009;SDS011;51556;50.002;22.014;2023-07-02T14:54:59;5.60;;;2.80;;
65009;SDS011;51556;50.002;22.014;2023-07-02T14:57:29;3.70;;;2.30;;
65009;SDS011;51556;50.002;22.014;2023-07-02T14:59:55;4.40;;;2.10;;
65009;SDS011;51556;50.002;22.014;2023-07-02T15:02:30;2.70;;;2.10;;
65009;SDS011;51556;50.002;22.014;2023-07-02T15:04:56;3.80;;;2.20;;
65009;SDS011;51556;50.002;22.014;2023-07-02T15:07:21;2.80;;;2.10;;